Los Angeles, California
Traffic Map
Current Weather Conditions
Los Angeles, California
Broken Clouds
Broken Clouds
58°
Feels Like: 58°
Wind Chill: 58° Ceiling: 2400
Heat Index: 58° Visibility: 7mi
Dew Point: 48° Wind: 0mph
Humidity: 70% Direction: ° ()
Pressure: 30.18in Gusts: 0mph
Raw Report DataKCQT 181847Z AUTO 00000KT 7SM BKN024 14/09 A3018 RMK AO2 SLP218 T01440089
Traffic Incident Summary
Active as of:
Severity:
Category:
InformationThere was an issue retrieving the traffic information for this location. Please try a different location or try again shortly.
Advertisements
Track Severe Weather on mobile